Time;durP1;ratioP1;P1;durP2;ratioP2;P2;SDS_P1;SDS_P2;PMS_P1;PMS_P2;Temp;Humidity;BMP_temperature;BMP_pressure;BME280_temperature;BME280_humidity;BME280_pressure;Samples;Min_cycle;Max_cycle;Signal;HPM_P1;HPM_P2
2022/09/08 00:00:42;;;;;;;8.07;3.30;;;15.80;94.80;;;;;;5027932;28;20242;-60
2022/09/08 00:03:14;;;;;;;8.23;3.63;;;15.70;94.70;;;;;;5022572;28;20195;-60
2022/09/08 00:05:55;;;;;;;4.80;2.47;;;15.70;94.60;;;;;;5034080;28;20183;-60
2022/09/08 00:08:21;;;;;;;6.67;3.27;;;15.70;94.60;;;;;;5035307;28;20215;-60
2022/09/08 00:10:55;;;;;;;4.60;3.17;;;15.60;94.50;;;;;;5014750;28;20228;-60
2022/09/08 00:13:22;;;;;;;4.17;3.30;;;15.60;94.40;;;;;;5035100;28;20206;-60
2022/09/08 00:15:49;;;;;;;3.33;2.60;;;15.60;94.60;;;;;;5017878;28;20193;-60
2022/09/08 00:18:15;;;;;;;7.27;3.07;;;15.60;94.50;;;;;;5034398;28;20201;-60
2022/09/08 00:20:40;;;;;;;5.33;3.93;;;15.50;94.50;;;;;;5059526;28;20187;-60
2022/09/08 00:23:06;;;;;;;10.73;4.13;;;15.50;94.40;;;;;;5018122;28;20198;-60
2022/09/08 00:25:32;;;;;;;5.23;2.80;;;15.50;94.40;;;;;;5033198;28;20207;-60
2022/09/08 00:27:58;;;;;;;4.13;3.40;;;15.50;94.40;;;;;;5050155;28;20286;-60
2022/09/08 00:30:23;;;;;;;6.70;2.80;;;15.40;94.50;;;;;;5027646;28;20188;-61
2022/09/08 00:32:49;;;;;;;8.27;3.07;;;15.40;94.40;;;;;;5007288;28;20223;-60
2022/09/08 00:35:18;;;;;;;8.60;3.63;;;15.40;94.60;;;;;;5021089;28;20227;-60
2022/09/08 00:37:47;;;;;;;6.33;2.87;;;15.40;94.60;;;;;;5031646;28;20226;-60
2022/09/08 00:40:14;;;;;;;4.40;3.00;;;15.40;94.60;;;;;;5027216;28;20184;-61
2022/09/08 00:42:42;;;;;;;3.93;3.07;;;15.40;94.60;;;;;;4999632;28;20204;-61
2022/09/08 00:45:12;;;;;;;4.93;2.70;;;15.40;94.70;;;;;;5032753;28;20189;-61
2022/09/08 00:47:54;;;;;;;3.77;3.23;;;15.40;94.90;;;;;;5028814;28;20202;-61
2022/09/08 00:50:24;;;;;;;6.10;3.10;;;15.40;94.70;;;;;;5024795;28;20194;-61
2022/09/08 00:53:00;;;;;;;4.73;2.87;;;15.40;94.70;;;;;;5027227;28;20218;-61
2022/09/08 00:55:36;;;;;;;8.00;2.93;;;15.40;94.80;;;;;;5034674;28;20187;-61
2022/09/08 00:58:02;;;;;;;5.57;3.03;;;15.40;94.70;;;;;;5033281;28;20186;-61
2022/09/08 01:00:28;;;;;;;3.07;2.83;;;15.30;94.60;;;;;;5024167;28;20179;-61
2022/09/08 01:02:54;;;;;;;4.53;2.87;;;15.30;94.60;;;;;;5047779;28;20202;-61
2022/09/08 01:05:23;;;;;;;5.97;3.00;;;15.30;94.70;;;;;;5023475;28;20195;-61
2022/09/08 01:14:12;;;;;;;3.60;3.00;;;15.40;94.80;;;;;;5029391;28;20207;-61
2022/09/08 01:16:43;;;;;;;7.23;3.20;;;15.30;94.80;;;;;;5032078;28;20195;-61
2022/09/08 01:19:23;;;;;;;10.77;3.67;;;15.30;94.80;;;;;;5042291;28;20195;-61
2022/09/08 01:22:01;;;;;;;3.53;2.50;;;15.30;94.80;;;;;;5025234;28;20186;-61
2022/09/08 01:24:50;;;;;;;6.40;2.93;;;15.40;95.00;;;;;;5028509;28;20214;-61
2022/09/08 01:27:30;;;;;;;4.30;3.40;;;15.30;94.80;;;;;;5028459;28;20203;-61
2022/09/08 01:30:04;;;;;;;6.33;3.60;;;15.30;94.90;;;;;;5032184;28;20257;-61
2022/09/08 01:32:36;;;;;;;6.27;3.43;;;15.50;95.10;;;;;;5033308;28;20234;-61
2022/09/08 01:35:01;;;;;;;4.33;3.33;;;15.40;94.90;;;;;;5032685;28;20198;-61
2022/09/08 01:37:28;;;;;;;6.13;3.43;;;15.40;95.00;;;;;;5016224;28;20191;-62
2022/09/08 01:39:53;;;;;;;10.03;3.63;;;15.40;94.90;;;;;;5024157;28;20249;-61
2022/09/08 01:42:19;;;;;;;4.33;3.80;;;15.30;94.80;;;;;;5048554;28;20226;-61
2022/09/08 01:44:45;;;;;;;6.27;3.57;;;15.30;94.80;;;;;;5025109;28;20219;-61
2022/09/08 01:47:11;;;;;;;3.57;3.10;;;15.30;94.80;;;;;;5010536;28;20238;-61
2022/09/08 01:49:37;;;;;;;6.73;2.97;;;15.30;94.70;;;;;;5028010;28;20191;-61
2022/09/08 01:52:03;;;;;;;6.97;3.20;;;15.30;95.00;;;;;;5031379;28;20211;-62
2022/09/08 01:54:29;;;;;;;4.20;3.43;;;15.30;94.80;;;;;;5017327;28;20274;-61
2022/09/08 01:56:55;;;;;;;4.57;3.30;;;15.30;94.80;;;;;;5043417;28;20278;-61
2022/09/08 01:59:21;;;;;;;3.13;2.83;;;15.30;94.80;;;;;;5019506;28;20194;-61
2022/09/08 02:01:47;;;;;;;4.63;2.73;;;15.30;94.70;;;;;;5036727;28;20195;-61
2022/09/08 02:04:13;;;;;;;5.07;3.10;;;15.20;94.60;;;;;;5021919;28;20198;-61
2022/09/08 02:06:38;;;;;;;5.00;2.97;;;15.20;94.70;;;;;;5019232;28;20196;-61
2022/09/08 02:09:04;;;;;;;4.33;3.43;;;15.20;94.70;;;;;;5046105;28;20187;-61
2022/09/08 02:11:30;;;;;;;3.87;3.17;;;15.20;94.90;;;;;;5028738;28;20221;-61
2022/09/08 02:13:56;;;;;;;3.47;3.13;;;15.20;94.90;;;;;;5037227;28;20191;-61
2022/09/08 02:16:21;;;;;;;4.13;3.40;;;15.30;94.90;;;;;;5027054;28;20187;-61
2022/09/08 02:18:47;;;;;;;7.00;3.83;;;15.30;94.90;;;;;;5036395;28;20183;-61
2022/09/08 02:21:15;;;;;;;6.20;3.10;;;15.20;94.80;;;;;;5035921;28;20191;-61
2022/09/08 02:23:44;;;;;;;6.10;3.67;;;15.20;94.90;;;;;;5035795;28;20209;-61
2022/09/08 02:26:22;;;;;;;4.27;3.30;;;15.20;95.20;;;;;;5035552;28;20183;-61
2022/09/08 02:28:48;;;;;;;5.53;3.30;;;15.30;95.00;;;;;;5025954;28;20193;-61
2022/09/08 02:31:14;;;;;;;7.93;3.23;;;15.30;94.90;;;;;;5030297;28;20224;-61
2022/09/08 02:33:40;;;;;;;5.47;3.20;;;15.20;94.70;;;;;;5035273;28;20211;-61
2022/09/08 02:36:06;;;;;;;5.73;3.40;;;15.20;94.70;;;;;;5045144;28;20212;-61
2022/09/08 02:38:33;;;;;;;3.97;3.03;;;15.10;94.70;;;;;;5034805;28;20191;-61
2022/09/08 02:40:59;;;;;;;6.30;3.63;;;15.20;94.70;;;;;;5013428;28;20216;-61
2022/09/08 02:43:26;;;;;;;5.80;3.33;;;15.10;94.70;;;;;;5034043;28;20221;-61
2022/09/08 02:45:52;;;;;;;4.47;2.53;;;15.10;94.80;;;;;;5018125;28;20279;-61
2022/09/08 02:48:17;;;;;;;3.40;3.10;;;15.20;94.80;;;;;;5026578;28;20282;-61
2022/09/08 02:50:43;;;;;;;7.43;3.30;;;15.10;94.70;;;;;;5036130;28;20244;-61
2022/09/08 02:53:09;;;;;;;4.00;3.50;;;15.10;94.80;;;;;;5019510;28;20314;-61
2022/09/08 02:55:40;;;;;;;5.97;4.10;;;15.10;94.80;;;;;;5031869;28;20246;-61
2022/09/08 02:58:07;;;;;;;5.97;3.53;;;15.20;95.00;;;;;;5035415;28;20191;-61
2022/09/08 03:00:34;;;;;;;6.80;4.10;;;15.20;95.00;;;;;;5034453;28;20175;-61
2022/09/08 03:03:00;;;;;;;4.07;3.40;;;15.20;95.00;;;;;;5035585;28;20187;-61
2022/09/08 03:05:25;;;;;;;7.67;3.80;;;15.20;95.00;;;;;;5042675;28;20187;-61
2022/09/08 03:07:52;;;;;;;5.03;3.87;;;15.20;94.90;;;;;;5016405;28;20206;-61
2022/09/08 03:10:23;;;;;;;6.53;4.10;;;15.20;94.90;;;;;;5022788;28;20195;-61
2022/09/08 03:12:53;;;;;;;3.53;3.23;;;15.30;95.10;;;;;;5023636;28;20215;-61
2022/09/08 03:15:20;;;;;;;7.27;3.67;;;15.30;94.90;;;;;;5025004;28;20191;-61
2022/09/08 03:17:46;;;;;;;9.37;3.83;;;15.20;94.90;;;;;;5014772;28;20186;-61
2022/09/08 03:20:12;;;;;;;7.13;3.77;;;15.20;94.90;;;;;;5058421;28;20325;-61
2022/09/08 03:22:38;;;;;;;8.50;4.20;;;15.20;94.90;;;;;;5013918;28;20241;-61
2022/09/08 03:25:04;;;;;;;6.73;3.63;;;15.20;95.00;;;;;;5051630;28;20195;-61
2022/09/08 03:27:30;;;;;;;8.30;4.10;;;15.30;95.00;;;;;;5027510;28;20191;-61
2022/09/08 03:29:55;;;;;;;4.60;3.60;;;15.30;94.90;;;;;;5032815;28;20206;-61
2022/09/08 03:32:22;;;;;;;6.63;3.00;;;15.20;94.90;;;;;;5031298;28;20342;-61
2022/09/08 03:34:48;;;;;;;11.17;3.90;;;15.20;94.80;;;;;;5019540;28;20203;-61
2022/09/08 03:37:14;;;;;;;5.03;4.13;;;15.20;94.90;;;;;;5033940;28;20226;-61
2022/09/08 03:39:39;;;;;;;9.40;3.93;;;15.20;94.80;;;;;;5035795;28;20218;-61
2022/09/08 03:42:08;;;;;;;5.27;3.27;;;15.10;94.70;;;;;;5018221;28;20199;-62
2022/09/08 03:44:34;;;;;;;5.17;3.27;;;15.10;94.70;;;;;;5018312;28;20230;-62
2022/09/08 03:47:00;;;;;;;4.40;3.70;;;15.20;95.00;;;;;;5017829;28;20198;-61
2022/09/08 03:49:26;;;;;;;4.07;3.63;;;15.20;94.90;;;;;;5022963;28;20287;-61
2022/09/08 03:51:52;;;;;;;4.40;3.83;;;15.10;94.80;;;;;;5033761;28;20210;-61
2022/09/08 03:57:02;;;;;;;5.70;3.67;;;15.10;94.80;;;;;;5032716;28;20198;-61
2022/09/08 03:59:28;;;;;;;4.80;4.10;;;15.10;94.90;;;;;;5018968;28;20195;-61
2022/09/08 04:01:54;;;;;;;4.90;3.50;;;15.10;95.20;;;;;;5034395;28;20226;-61
2022/09/08 04:04:22;;;;;;;5.60;4.10;;;15.10;94.90;;;;;;5019755;28;20211;-61
2022/09/08 04:06:48;;;;;;;4.90;3.40;;;15.10;94.90;;;;;;5033605;28;20195;-61
2022/09/08 04:09:15;;;;;;;7.87;4.03;;;15.10;94.90;;;;;;5025011;28;20203;-61
2022/09/08 04:11:40;;;;;;;4.03;3.63;;;15.10;94.90;;;;;;5032922;28;20218;-61
2022/09/08 04:14:06;;;;;;;6.57;4.27;;;15.10;94.90;;;;;;5034073;28;20191;-60
2022/09/08 04:16:32;;;;;;;4.80;3.90;;;15.10;94.80;;;;;;5033929;28;20290;-61
2022/09/08 04:18:57;;;;;;;6.50;4.07;;;15.10;94.80;;;;;;5016508;28;20282;-61
2022/09/08 04:21:23;;;;;;;6.23;4.30;;;15.00;94.70;;;;;;5024067;28;20279;-61
2022/09/08 04:23:49;;;;;;;6.37;4.27;;;15.10;94.80;;;;;;5032181;28;20244;-61
2022/09/08 04:26:14;;;;;;;6.83;4.40;;;15.10;94.90;;;;;;5033355;28;20270;-61
2022/09/08 04:28:41;;;;;;;6.00;4.27;;;15.10;94.90;;;;;;5010765;28;20184;-62
2022/09/08 04:31:11;;;;;;;7.27;4.57;;;15.10;94.90;;;;;;5031985;28;20236;-61
2022/09/08 04:33:37;;;;;;;7.37;4.50;;;15.10;94.80;;;;;;5033751;28;20237;-61
2022/09/08 04:36:22;;;;;;;7.20;4.07;;;15.00;94.60;;;;;;5033671;28;20186;-61
2022/09/08 04:38:48;;;;;;;5.60;3.77;;;15.00;94.80;;;;;;5031546;28;20220;-61
2022/09/08 04:41:16;;;;;;;5.63;4.30;;;15.10;94.80;;;;;;5050375;28;20194;-61
2022/09/08 04:43:43;;;;;;;7.33;3.80;;;15.10;94.80;;;;;;5033349;28;20194;-61
2022/09/08 04:46:14;;;;;;;5.90;4.43;;;15.10;94.80;;;;;;5027874;28;20333;-61
2022/09/08 04:48:42;;;;;;;7.57;4.10;;;15.10;94.80;;;;;;5040035;28;20191;-61
2022/09/08 04:51:10;;;;;;;7.40;4.40;;;15.00;94.80;;;;;;5033939;28;20259;-61
2022/09/08 04:53:36;;;;;;;7.30;4.20;;;15.10;94.80;;;;;;5033411;28;20246;-61
2022/09/08 04:56:03;;;;;;;5.73;4.17;;;15.10;94.90;;;;;;5049812;28;20191;-61
2022/09/08 04:58:34;;;;;;;5.00;3.50;;;15.10;95.00;;;;;;5033342;28;20274;-61
2022/09/08 05:01:11;;;;;;;5.10;4.60;;;15.10;95.00;;;;;;5024355;28;20247;-61
2022/09/08 05:03:37;;;;;;;6.87;4.60;;;15.20;95.10;;;;;;5011125;28;20531;-61
2022/09/08 05:06:12;;;;;;;6.73;4.20;;;15.20;95.20;;;;;;5016537;28;20214;-61
2022/09/08 05:08:38;;;;;;;7.67;4.37;;;15.30;95.20;;;;;;5032308;28;20199;-61
2022/09/08 05:11:04;;;;;;;5.33;4.17;;;15.30;95.10;;;;;;5033266;28;20199;-61
2022/09/08 05:13:30;;;;;;;6.27;4.27;;;15.30;95.30;;;;;;5049230;28;20218;-61
2022/09/08 05:16:12;;;;;;;6.80;4.73;;;15.30;95.20;;;;;;5043023;28;20284;-61
2022/09/08 05:18:38;;;;;;;6.00;4.17;;;15.30;95.20;;;;;;5033132;28;20195;-61
2022/09/08 05:21:05;;;;;;;6.97;5.00;;;15.30;95.20;;;;;;5010485;28;20198;-61
2022/09/08 05:23:30;;;;;;;5.00;4.50;;;15.40;95.20;;;;;;5032486;28;20199;-61
2022/09/08 05:26:01;;;;;;;9.17;4.87;;;15.40;95.20;;;;;;5030547;28;20192;-61
2022/09/08 05:28:30;;;;;;;7.47;4.03;;;15.40;95.20;;;;;;5029507;28;20277;-61
2022/09/08 05:30:57;;;;;;;7.13;4.80;;;15.40;95.20;;;;;;5027246;28;20325;-61
2022/09/08 05:33:23;;;;;;;8.93;4.70;;;15.40;95.20;;;;;;5044400;28;20273;-61
2022/09/08 05:35:50;;;;;;;6.80;4.60;;;15.40;95.20;;;;;;5018890;28;20195;-61
2022/09/08 05:38:16;;;;;;;8.30;4.70;;;15.40;95.20;;;;;;5028308;28;20270;-61
2022/09/08 05:40:42;;;;;;;6.97;5.50;;;15.40;95.20;;;;;;5049139;28;20273;-61
2022/09/08 05:43:08;;;;;;;5.77;4.40;;;15.40;95.30;;;;;;5016478;28;20225;-61
2022/09/08 05:45:33;;;;;;;6.60;5.07;;;15.50;95.20;;;;;;5048917;28;20195;-61
2022/09/08 05:47:59;;;;;;;5.13;4.60;;;15.40;95.30;;;;;;5016179;28;20198;-61
2022/09/08 05:50:25;;;;;;;5.57;4.13;;;15.50;95.30;;;;;;5043967;28;20226;-61
2022/09/08 05:52:51;;;;;;;8.60;4.43;;;15.50;95.30;;;;;;5015737;28;20295;-60
2022/09/08 05:55:17;;;;;;;8.73;4.90;;;15.50;95.20;;;;;;5032750;28;20222;-60
2022/09/08 05:57:43;;;;;;;5.80;4.77;;;15.50;95.20;;;;;;5010756;28;20183;-61
2022/09/08 06:00:10;;;;;;;6.73;5.20;;;15.50;95.30;;;;;;5046093;28;20654;-61
2022/09/08 06:02:36;;;;;;;5.17;4.67;;;15.50;95.30;;;;;;5013498;28;20218;-64
2022/09/08 06:05:03;;;;;;;6.70;5.37;;;15.60;95.30;;;;;;5029426;28;20195;-61
2022/09/08 06:07:30;;;;;;;5.93;5.10;;;15.60;95.30;;;;;;5025722;28;20191;-61
2022/09/08 06:09:56;;;;;;;7.17;5.60;;;15.60;95.30;;;;;;5022428;28;20196;-61
2022/09/08 06:12:21;;;;;;;6.83;4.93;;;15.60;95.40;;;;;;5025223;28;20242;-61
2022/09/08 06:14:47;;;;;;;9.07;5.73;;;15.60;95.40;;;;;;5025789;28;20226;-61
2022/09/08 06:17:13;;;;;;;6.13;5.43;;;15.70;95.40;;;;;;5019670;28;20263;-61
2022/09/08 06:19:38;;;;;;;8.90;5.40;;;15.70;95.40;;;;;;5039096;28;20195;-61
2022/09/08 06:22:04;;;;;;;7.90;5.93;;;15.70;95.40;;;;;;5004719;28;20240;-61
2022/09/08 06:24:30;;;;;;;6.57;5.00;;;15.80;95.40;;;;;;5010356;28;20196;-61
2022/09/08 06:27:08;;;;;;;6.00;5.40;;;15.80;95.40;;;;;;5046978;28;20199;-61
2022/09/08 06:29:37;;;;;;;7.20;6.13;;;15.80;95.40;;;;;;5030030;28;20233;-61
2022/09/08 06:32:09;;;;;;;8.50;6.13;;;15.80;95.40;;;;;;5031379;28;20235;-61
2022/09/08 06:34:45;;;;;;;8.30;6.20;;;15.80;95.40;;;;;;5030693;28;20191;-61
2022/09/08 06:37:46;;;;;;;8.40;6.20;;;15.90;95.50;;;;;;5016546;28;20263;-61
2022/09/08 06:40:35;;;;;;;7.17;6.43;;;15.90;95.30;;;;;;5031489;28;20187;-61
2022/09/08 06:43:16;;;;;;;8.67;6.33;;;16.00;95.40;;;;;;5033591;28;20202;-61
2022/09/08 06:45:48;;;;;;;6.10;5.50;;;16.00;95.40;;;;;;5033518;28;20244;-61
2022/09/08 06:48:27;;;;;;;5.90;5.27;;;16.10;95.50;;;;;;5035626;28;20183;-61
2022/09/08 06:51:11;;;;;;;6.27;5.67;;;16.10;95.50;;;;;;5028769;28;20262;-61
2022/09/08 06:53:55;;;;;;;6.47;5.87;;;16.10;95.40;;;;;;5033901;28;20293;-61
2022/09/08 06:56:49;;;;;;;7.97;5.20;;;16.20;95.40;;;;;;5033131;28;20183;-61
2022/09/08 06:59:21;;;;;;;5.97;5.37;;;16.20;95.40;;;;;;5032923;28;20179;-63
2022/09/08 07:02:06;;;;;;;8.67;5.93;;;16.20;95.40;;;;;;5030083;28;20190;-62
2022/09/08 07:04:53;;;;;;;9.10;5.77;;;16.20;95.10;;;;;;5021977;28;20187;-61
2022/09/08 07:07:31;;;;;;;8.53;5.93;;;16.20;95.20;;;;;;5033603;28;20191;-61
2022/09/08 07:10:23;;;;;;;6.83;6.17;;;16.20;95.30;;;;;;5033464;28;20194;-61
2022/09/08 07:12:55;;;;;;;10.83;6.70;;;16.30;95.40;;;;;;5036194;28;20241;-61
2022/09/08 07:15:39;;;;;;;7.57;6.17;;;16.30;95.40;;;;;;5067014;28;20215;-62
2022/09/08 07:18:22;;;;;;;7.47;5.70;;;16.30;95.50;;;;;;5032244;28;20187;-61
2022/09/08 07:20:48;;;;;;;6.63;5.60;;;16.40;95.50;;;;;;5020865;28;20270;-61
2022/09/08 07:23:19;;;;;;;7.83;5.90;;;16.40;95.50;;;;;;5031271;28;20202;-62
2022/09/08 07:25:54;;;;;;;6.47;5.50;;;16.40;95.40;;;;;;5032753;28;20190;-61
2022/09/08 07:28:24;;;;;;;6.53;5.87;;;16.50;95.50;;;;;;5032010;28;20270;-61
2022/09/08 07:31:02;;;;;;;6.83;5.90;;;16.50;95.50;;;;;;5030655;28;20725;-61
2022/09/08 07:33:40;;;;;;;7.77;6.00;;;16.60;95.50;;;;;;5032460;28;20349;-61
2022/09/08 07:36:27;;;;;;;5.73;5.13;;;16.60;95.50;;;;;;5023932;28;20186;-61
2022/09/08 07:38:54;;;;;;;5.90;5.37;;;16.70;95.50;;;;;;5026739;28;20179;-61
2022/09/08 07:41:29;;;;;;;6.57;5.97;;;16.70;95.60;;;;;;5031656;28;20180;-61
2022/09/08 07:43:59;;;;;;;6.60;5.90;;;16.80;95.60;;;;;;5031797;28;20193;-61
2022/09/08 07:46:59;;;;;;;6.10;5.50;;;16.80;95.30;;;;;;5029718;28;20203;-61
2022/09/08 07:49:43;;;;;;;8.63;6.07;;;16.80;95.40;;;;;;5031494;28;20194;-61
2022/09/08 07:52:24;;;;;;;6.77;5.40;;;16.80;95.40;;;;;;5022413;28;20203;-61
2022/09/08 07:54:55;;;;;;;6.37;5.50;;;16.90;95.20;;;;;;5043340;28;20180;-61
2022/09/08 07:57:29;;;;;;;6.63;5.30;;;17.10;95.30;;;;;;5032555;28;20175;-61
2022/09/08 08:00:12;;;;;;;6.53;5.73;;;17.10;95.30;;;;;;5033561;28;20283;-61
2022/09/08 08:02:46;;;;;;;6.40;5.60;;;17.20;95.20;;;;;;5033736;28;20261;-61
2022/09/08 08:05:18;;;;;;;8.10;5.43;;;17.20;95.30;;;;;;5031110;28;20210;-61
2022/09/08 08:08:02;;;;;;;7.30;5.63;;;17.30;95.20;;;;;;5031761;28;20190;-61
2022/09/08 08:10:32;;;;;;;7.40;5.30;;;17.30;95.20;;;;;;5033154;28;20188;-61
2022/09/08 08:13:04;;;;;;;6.77;5.67;;;17.30;95.10;;;;;;5031101;28;20230;-62
2022/09/08 08:15:45;;;;;;;6.77;5.60;;;17.40;95.20;;;;;;5032574;28;20219;-61
2022/09/08 08:18:43;;;;;;;6.47;5.83;;;17.50;95.30;;;;;;5033336;28;20203;-61
2022/09/08 08:21:16;;;;;;;7.63;5.83;;;17.50;95.30;;;;;;5020758;28;20184;-61
2022/09/08 08:24:13;;;;;;;6.30;5.30;;;17.60;95.30;;;;;;5030696;28;20183;-61
2022/09/08 08:27:08;;;;;;;7.13;6.43;;;17.70;95.40;;;;;;5014008;28;20240;-62
2022/09/08 08:29:52;;;;;;;5.50;4.60;;;17.70;95.30;;;;;;5028098;28;20191;-61
2022/09/08 08:32:27;;;;;;;5.63;5.10;;;17.80;93.50;;;;;;5025673;28;20230;-61
2022/09/08 08:35:06;;;;;;;6.50;5.63;;;18.10;93.00;;;;;;5032321;28;20255;-61
2022/09/08 08:37:33;;;;;;;5.70;4.80;;;18.40;91.20;;;;;;5028631;28;20176;-62
2022/09/08 08:40:00;;;;;;;8.20;4.43;;;18.90;89.00;;;;;;5039753;28;20183;-61
2022/09/08 08:42:35;;;;;;;9.63;4.93;;;18.90;90.20;;;;;;5013781;28;20188;-62
2022/09/08 08:45:16;;;;;;;7.00;5.17;;;18.90;91.40;;;;;;5027819;28;20247;-61
2022/09/08 08:48:01;;;;;;;9.80;5.27;;;18.90;91.30;;;;;;5032396;28;20187;-62
2022/09/08 08:51:00;;;;;;;6.13;4.90;;;19.00;90.10;;;;;;5023358;28;20179;-62
2022/09/08 08:53:32;;;;;;;5.97;5.03;;;19.10;90.70;;;;;;5031090;28;20211;-61
2022/09/08 08:56:24;;;;;;;7.17;5.30;;;19.10;90.60;;;;;;5032638;28;20179;-62
2022/09/08 08:59:19;;;;;;;5.33;4.60;;;19.20;90.80;;;;;;5052820;28;20183;-61
2022/09/08 09:02:25;;;;;;;5.83;4.97;;;19.30;91.40;;;;;;5031359;28;20274;-61
2022/09/08 09:05:22;;;;;;;9.50;5.07;;;19.30;91.30;;;;;;5032313;28;20182;-62
2022/09/08 09:08:08;;;;;;;5.87;4.93;;;19.40;90.50;;;;;;5041685;28;20215;-62
2022/09/08 09:11:15;;;;;;;5.80;4.93;;;19.70;89.30;;;;;;5031838;28;20207;-62
2022/09/08 09:14:01;;;;;;;6.17;5.20;;;19.70;90.30;;;;;;5030062;28;20269;-62
2022/09/08 09:16:38;;;;;;;5.03;4.60;;;19.80;90.10;;;;;;5019904;28;20222;-62
2022/09/08 09:19:42;;;;;;;6.73;4.10;;;19.80;89.40;;;;;;5032433;28;20182;-61
2022/09/08 09:22:33;;;;;;;6.77;4.23;;;19.90;90.40;;;;;;5018903;28;20186;-61
2022/09/08 09:25:13;;;;;;;9.20;5.20;;;19.90;89.90;;;;;;5019484;28;20610;-61
2022/09/08 09:27:45;;;;;;;8.20;4.80;;;20.00;90.90;;;;;;5030964;28;20182;-61
2022/09/08 09:30:37;;;;;;;6.37;4.70;;;20.00;90.30;;;;;;5031107;28;20273;-62
2022/09/08 09:33:19;;;;;;;5.93;4.53;;;20.10;90.50;;;;;;5031684;28;20261;-61
2022/09/08 09:36:11;;;;;;;5.20;4.70;;;20.20;90.60;;;;;;5024704;28;20187;-62
2022/09/08 09:38:57;;;;;;;5.10;4.57;;;20.20;89.80;;;;;;5030421;28;20187;-62
2022/09/08 09:42:13;;;;;;;7.73;4.87;;;20.20;90.30;;;;;;5031845;28;20250;-61
2022/09/08 09:44:58;;;;;;;5.40;4.90;;;20.30;89.70;;;;;;5012951;28;20190;-61
2022/09/08 09:47:26;;;;;;;7.33;4.90;;;20.30;88.40;;;;;;5031676;28;20209;-61
2022/09/08 09:49:55;;;;;;;7.10;5.13;;;20.30;89.40;;;;;;5031043;28;20191;-62
2022/09/08 09:53:02;;;;;;;6.57;4.97;;;20.30;89.60;;;;;;5030170;28;20206;-61
2022/09/08 09:56:18;;;;;;;6.07;4.57;;;20.40;89.30;;;;;;5040297;28;20232;-61
2022/09/08 09:59:18;;;;;;;6.23;4.90;;;20.40;88.30;;;;;;5022567;28;20285;-62
2022/09/08 10:02:02;;;;;;;8.33;4.20;;;20.40;88.70;;;;;;5024330;28;20183;-62
2022/09/08 10:04:33;;;;;;;5.63;4.80;;;20.30;87.70;;;;;;5030507;28;20181;-61
2022/09/08 10:07:23;;;;;;;6.87;5.30;;;20.30;88.60;;;;;;5031055;28;20202;-62
2022/09/08 10:09:54;;;;;;;7.33;4.53;;;20.40;89.30;;;;;;5033866;28;20245;-62
2022/09/08 10:12:55;;;;;;;5.87;4.77;;;20.30;88.80;;;;;;5047504;28;20199;-62
2022/09/08 10:15:53;;;;;;;9.10;4.77;;;20.30;89.40;;;;;;5020907;28;20203;-61
2022/09/08 10:18:48;;;;;;;9.17;5.40;;;20.30;88.40;;;;;;5027457;28;20179;-62
2022/09/08 10:21:35;;;;;;;6.83;4.70;;;20.30;87.70;;;;;;5026353;28;20188;-62
2022/09/08 10:24:07;;;;;;;6.27;4.70;;;20.30;88.90;;;;;;5034252;28;20183;-61
2022/09/08 10:26:35;;;;;;;6.37;4.70;;;20.30;89.40;;;;;;5033799;28;20604;-61
2022/09/08 10:29:22;;;;;;;5.13;4.63;;;20.30;89.60;;;;;;5026249;28;20188;-62
2022/09/08 10:32:06;;;;;;;5.43;4.93;;;20.30;90.00;;;;;;5030847;28;20238;-62
2022/09/08 10:35:09;;;;;;;5.70;5.20;;;20.30;90.80;;;;;;5034260;28;20214;-61
2022/09/08 10:38:02;;;;;;;7.60;4.90;;;20.30;91.00;;;;;;5024037;28;20299;-61
2022/09/08 10:40:42;;;;;;;6.30;5.50;;;20.30;90.80;;;;;;5033320;28;20233;-61
2022/09/08 10:43:27;;;;;;;5.37;4.60;;;20.30;91.50;;;;;;5033730;28;20191;-61
2022/09/08 10:46:17;;;;;;;5.80;5.27;;;20.20;91.60;;;;;;5037456;28;20187;-62
2022/09/08 10:49:12;;;;;;;6.90;4.90;;;20.20;91.80;;;;;;5021454;28;20191;-61
2022/09/08 10:51:38;;;;;;;5.80;5.23;;;20.20;91.90;;;;;;5025954;28;20187;-61
2022/09/08 10:54:22;;;;;;;5.93;5.40;;;20.20;92.10;;;;;;5048856;28;20187;-61
2022/09/08 10:56:49;;;;;;;5.17;4.77;;;20.20;92.20;;;;;;5034096;28;20179;-61
2022/09/08 10:59:17;;;;;;;5.90;5.30;;;20.10;92.10;;;;;;5035436;28;20175;-61
2022/09/08 11:02:07;;;;;;;7.53;5.57;;;20.10;92.40;;;;;;5033083;28;20387;-62
2022/09/08 11:05:00;;;;;;;6.63;5.47;;;20.00;92.60;;;;;;5032453;28;20187;-62
2022/09/08 11:07:38;;;;;;;9.67;5.20;;;20.00;92.40;;;;;;5033746;28;20211;-61
2022/09/08 11:10:23;;;;;;;7.60;5.50;;;20.00;92.70;;;;;;5033506;28;20209;-61
2022/09/08 11:13:13;;;;;;;8.03;5.47;;;19.90;91.40;;;;;;5047226;28;20244;-61
2022/09/08 11:16:21;;;;;;;7.53;5.10;;;19.80;91.10;;;;;;5031486;28;20252;-61
2022/09/08 11:19:26;;;;;;;9.00;6.03;;;19.80;91.50;;;;;;5032456;28;20179;-61
2022/09/08 11:21:55;;;;;;;7.47;6.53;;;19.80;91.80;;;;;;5029543;28;20191;-61
2022/09/08 11:24:53;;;;;;;6.23;5.30;;;19.70;92.50;;;;;;5026360;28;20239;-61
2022/09/08 11:27:26;;;;;;;7.10;5.90;;;19.80;92.80;;;;;;5031238;28;20182;-61
2022/09/08 11:30:19;;;;;;;8.43;6.40;;;19.70;92.90;;;;;;5031961;28;20191;-61
2022/09/08 11:33:19;;;;;;;6.83;6.23;;;19.70;93.20;;;;;;5032777;28;20241;-61
2022/09/08 11:36:03;;;;;;;7.83;6.90;;;19.60;93.50;;;;;;5055798;28;20183;-61
2022/09/08 11:38:49;;;;;;;7.53;6.60;;;19.60;93.60;;;;;;5033331;28;20233;-61
2022/09/08 11:41:29;;;;;;;8.27;7.40;;;19.50;93.90;;;;;;5031867;28;20241;-61
2022/09/08 11:44:37;;;;;;;7.90;6.47;;;19.50;94.00;;;;;;5043643;28;20183;-61
2022/09/08 11:47:17;;;;;;;9.77;7.70;;;19.50;94.10;;;;;;5033170;28;20194;-61
2022/09/08 11:50:18;;;;;;;13.90;9.07;;;19.40;93.80;;;;;;5032447;28;20213;-62
2022/09/08 11:53:03;;;;;;;13.40;7.80;;;19.30;94.20;;;;;;5034070;28;20215;-62
2022/09/08 11:55:37;;;;;;;9.83;8.03;;;19.30;94.40;;;;;;5032019;28;20179;-61
2022/09/08 11:58:19;;;;;;;12.90;8.10;;;19.30;94.60;;;;;;5031355;28;20186;-61
2022/09/08 12:01:06;;;;;;;10.40;8.40;;;19.30;94.90;;;;;;5031620;28;20205;-61
2022/09/08 12:03:53;;;;;;;11.17;9.33;;;19.30;95.10;;;;;;5063578;28;20222;-61
2022/09/08 12:06:47;;;;;;;11.93;9.27;;;19.30;95.20;;;;;;5035669;28;20191;-61
2022/09/08 12:09:28;;;;;;;10.57;8.37;;;19.30;95.30;;;;;;5030318;28;20183;-61
2022/09/08 12:12:23;;;;;;;10.83;9.50;;;19.30;95.60;;;;;;5032247;28;20187;-61
2022/09/08 12:15:30;;;;;;;12.57;10.20;;;19.30;95.80;;;;;;5033558;28;20298;-62
2022/09/08 12:18:02;;;;;;;12.23;10.90;;;19.40;95.90;;;;;;5042390;28;20190;-62
2022/09/08 12:20:46;;;;;;;13.73;11.13;;;19.40;96.00;;;;;;5032551;28;20187;-62
2022/09/08 12:23:26;;;;;;;12.40;10.00;;;19.40;96.00;;;;;;5024971;28;20183;-62
2022/09/08 12:26:14;;;;;;;17.03;11.37;;;19.50;96.00;;;;;;5065087;28;20333;-62
2022/09/08 12:29:05;;;;;;;11.27;10.07;;;19.50;96.10;;;;;;5035821;28;20267;-62
2022/09/08 12:31:31;;;;;;;13.30;11.17;;;19.60;96.20;;;;;;5031047;28;20242;-62
2022/09/08 12:34:06;;;;;;;17.10;11.60;;;19.60;96.20;;;;;;5063595;28;20215;-62
2022/09/08 12:36:53;;;;;;;15.13;11.10;;;19.60;96.30;;;;;;5031128;28;20208;-62
2022/09/08 12:39:57;;;;;;;12.20;11.00;;;19.70;96.30;;;;;;5031488;28;20211;-62
2022/09/08 12:43:08;;;;;;;14.20;12.60;;;19.70;96.40;;;;;;5048755;28;20194;-62
2022/09/08 12:45:58;;;;;;;14.43;12.03;;;19.80;96.50;;;;;;5030335;28;20184;-61
2022/09/08 12:48:37;;;;;;;13.90;12.60;;;19.80;96.50;;;;;;5065341;28;20229;-61
2022/09/08 12:51:29;;;;;;;13.87;12.17;;;19.80;96.40;;;;;;5033335;28;20236;-61
2022/09/08 12:54:33;;;;;;;17.93;14.10;;;19.90;96.50;;;;;;5059780;28;20206;-61
2022/09/08 12:57:02;;;;;;;13.37;11.97;;;19.90;96.60;;;;;;5024705;28;20182;-61
2022/09/08 12:59:59;;;;;;;13.67;11.87;;;19.90;96.50;;;;;;5030573;28;20179;-61
2022/09/08 13:02:56;;;;;;;15.13;13.50;;;19.90;96.50;;;;;;5031484;28;20186;-61
2022/09/08 13:05:30;;;;;;;12.17;10.97;;;20.00;96.50;;;;;;5065382;28;20214;-61
2022/09/08 13:08:20;;;;;;;14.70;13.10;;;19.90;96.40;;;;;;5065057;28;20281;-61
2022/09/08 13:10:47;;;;;;;19.13;13.50;;;19.90;96.40;;;;;;5048871;28;20286;-62
2022/09/08 13:13:37;;;;;;;15.77;12.90;;;20.00;96.50;;;;;;5063294;28;20257;-61
2022/09/08 13:16:19;;;;;;;13.70;12.40;;;20.00;96.60;;;;;;5040457;28;20180;-61
2022/09/08 13:19:00;;;;;;;20.40;13.03;;;20.00;96.50;;;;;;5026665;28;20179;-62
2022/09/08 13:21:37;;;;;;;14.53;12.20;;;20.00;96.60;;;;;;5040380;28;20213;-62
2022/09/08 13:24:55;;;;;;;14.97;11.47;;;20.10;96.60;;;;;;5033948;28;20183;-62
2022/09/08 13:27:39;;;;;;;13.17;10.07;;;20.30;96.70;;;;;;5010893;28;20196;-61
2022/09/08 13:30:12;;;;;;;9.30;8.33;;;20.80;96.90;;;;;;5066181;28;20179;-62
2022/09/08 13:32:56;;;;;;;8.63;7.90;;;20.90;96.50;;;;;;5024056;28;20302;-62
2022/09/08 13:35:40;;;;;;;6.37;5.40;;;21.00;95.80;;;;;;5033976;28;20179;-62
2022/09/08 13:38:46;;;;;;;7.30;6.60;;;20.70;94.00;;;;;;5033186;28;20273;-62
2022/09/08 13:41:36;;;;;;;8.10;7.23;;;20.60;94.70;;;;;;5026370;28;20234;-62